Date,TemperatureHighF,TemperatureAvgF,TemperatureLowF,DewpointHighF,DewpointAvgF,DewpointLowF,HumidityHigh,HumidityAvg,HumidityLow,PressureMaxIn,PressureMinIn,WindSpeedMaxMPH,WindSpeedAvgMPH,GustSpeedMaxMPH,PrecipitationSumIn
2013-1-1,46.1,43.9,39.1,41.5,39.9,37.0,92,86,80,30.22,30.16,6,4,15,0.02
2013-1-2,53.7,43.2,37.4,44.2,40.5,36.0,96,91,67,30.35,30.19,3,1,7,0.00
2013-1-3,47.9,45.2,41.9,45.7,43.5,40.6,95,94,92,30.44,30.35,3,0,6,0.02
2013-1-4,50.4,44.4,37.9,44.0,40.1,37.1,98,85,67,30.36,30.04,8,3,15,0.00
2013-1-5,47.7,43.6,40.0,41.7,39.5,37.6,94,86,72,30.03,29.81,6,2,13,0.00
2013-1-6,42.3,39.6,37.4,39.3,35.3,30.5,96,85,71,29.90,29.78,10,5,22,0.00
2013-1-7,39.0,35.0,32.7,33.6,31.0,26.2,96,86,68,30.05,29.82,11,5,27,0.00
2013-1-8,33.5,30.0,28.2,28.3,25.8,21.7,95,84,67,30.16,30.05,12,8,36,0.00
2013-1-9,33.7,30.4,24.8,29.6,25.6,22.8,93,82,70,30.25,30.14,6,4,15,0.19
2013-1-10,41.9,33.7,24.0,30.9,26.8,22.5,95,77,60,30.24,30.05,9,3,23,0.52
2013-1-11,47.8,45.4,41.7,44.6,37.5,30.6,92,74,63,30.05,29.87,10,7,24,0.49
2013-1-12,51.1,46.3,38.6,48.0,44.3,36.9,95,93,86,30.05,29.85,9,3,24,0.29
2013-1-13,40.1,38.9,37.0,37.2,36.3,34.9,94,90,85,30.33,30.06,5,2,13,0.23
2013-1-14,49.7,41.4,35.4,40.1,36.6,34.1,96,84,64,30.38,30.32,7,1,12,0.34
2013-1-15,57.1,48.4,39.0,39.9,36.9,34.9,92,66,45,30.33,30.15,5,2,13,0.15
2013-1-16,61.2,52.2,45.5,45.0,39.5,35.2,93,63,46,30.15,29.76,10,3,24,0.06
2013-1-17,56.8,51.9,46.7,48.8,44.6,40.8,92,76,64,29.83,29.63,15,8,32,0.06
2013-1-18,58.7,55.0,49.7,47.6,44.5,41.0,84,68,52,29.81,29.54,12,3,24,0.10
2013-1-19,54.8,48.9,45.4,45.3,42.4,40.4,91,79,60,29.81,29.53,12,8,27,0.14
2013-1-20,58.4,53.7,48.2,51.0,45.5,40.5,79,74,66,29.95,29.81,12,8,25,0.20
2013-1-21,63.8,58.9,54.8,50.5,46.2,41.9,80,64,45,29.94,29.78,10,5,25,0.07
2013-1-22,61.8,57.7,52.3,49.1,46.6,41.1,84,67,52,29.80,29.68,14,6,28,0.06
2013-1-23,57.9,55.0,51.8,50.1,46.7,39.8,88,74,56,29.98,29.77,11,7,24,0.01
2013-1-24,59.5,53.3,47.6,46.5,44.1,42.1,86,72,54,29.98,29.65,6,2,16,0.01
2013-1-25,58.1,51.4,42.0,46.8,44.7,40.7,95,79,58,29.80,29.59,12,6,31,0.33
2013-1-26,45.1,43.4,40.8,44.6,42.5,39.5,98,96,95,29.79,29.69,10,7,22,0.37
2013-1-27,44.7,37.7,33.9,44.2,36.6,32.6,98,96,93,30.01,29.76,13,8,26,0.32
2013-1-28,38.8,37.3,35.5,36.9,35.5,33.6,95,93,91,30.08,29.96,5,3,10,0.10
2013-1-29,38.5,37.3,35.0,36.4,35.0,31.5,95,92,87,30.16,30.08,5,2,11,0.11
2013-1-30,42.3,36.7,32.5,35.6,32.7,29.9,92,86,72,30.13,30.02,3,1,7,0.10
2013-1-31,44.2,38.9,32.0,40.3,36.0,30.5,95,90,73,30.03,29.86,9,4,22,0.38